St Helier, United Kingdom
Current Conditions -  °F | °C
As of 2:20 PM on Friday 28 Nov 2014 (Local Time) from EGJJ Reporting Station
Clear Clear  
Wind Chill: 55°   Ceiling: Unl
Heat Index: 55°   Visibility: 6mi
Dew Point: 52°   Wind: 20mph
Humidity: 88%   Direction: 70°ENE
Pressure: 29.38"   Gusts: NA
Location:  49.18°N, 2.1°W
Report Text: EGJJ 281320Z 07017KT CAVOK 13/11 Q0995 NOSIG
Loading
Personal Weather Stations






























Interactive Weather Map New forecast layout! Learn more

10-Day Weather Forecast

Advertisements
Track Severe Weather on mobile